LQTZ/TZL METAR and TAF weather

Enter ICAO airport designator
Station Type Date Time Source
LQTZ METAR 2021/09/28 15:30 UTC NOAA

LQTZ 281530Z 28004KT 250V310 9999 BKN025 18/18 Q1019


Station Type Date Time Source
LQTZ Decoded METAR 2021/09/28 15:30 UTC NOAA

Tuzla, Bosnia and Herzegovina (LQTZ) 44-33N 018-42E
Sep 28, 2021 - 11:30 AM EDT / 2021.09.28 1530 UTC
Wind: from the W (280 degrees) at 5 MPH (4 KT) (direction variable):0
Visibility: greater than 7 mile(s):0
Sky conditions: mostly cloudy
Temperature: 64 F (18 C)
Dew Point: 64 F (18 C)
Relative Humidity: 100%
Pressure (altimeter): 30.09 in. Hg (1019 hPa)
ob: LQTZ 281530Z 28004KT 250V310 9999 BKN025 18/18 Q1019
cycle: 15

Station Type Date Time Source
LQTZ TAF 2021/09/28 12:08 UTC NOAA

TAF LQTZ 281100Z 2812/2912 28006KT 9999 BKN040 TX21/2813Z TN13/2904Z PROB40
TEMPO 2812/2819 34012KT 5000 SHRA SCT010 FEW030TCU BKN035
BECMG 2822/2824 2000 BR BKN003
TEMPO 2900/2906 0200 FG VV001
BECMG 2907/2909 9999 NSW SCT020

Example: see airport list